createdAt,value
2022-10-31T00:01:08.103Z,2.81
2022-10-31T00:06:32.722Z,2.41
2022-10-31T00:11:58.589Z,2.33
2022-10-31T00:17:20.913Z,2.59
2022-10-31T00:22:48.401Z,2.51
2022-10-31T00:28:13.898Z,2.47
2022-10-31T00:33:37.615Z,2.55
2022-10-31T00:39:03.375Z,2.61
2022-10-31T00:44:28.590Z,2.11
2022-10-31T00:49:53.205Z,2.19
2022-10-31T00:55:19.558Z,2.43
2022-10-31T01:00:50.930Z,2.66
2022-10-31T01:06:10.498Z,2.52
2022-10-31T01:11:35.801Z,2.22
2022-10-31T01:16:59.873Z,2.89
2022-10-31T01:22:27.527Z,3.33
2022-10-31T01:27:51.186Z,3.05
2022-10-31T01:33:17.785Z,2.73
2022-10-31T01:38:41.995Z,2.51
2022-10-31T01:44:07.342Z,2.97
2022-10-31T01:50:01.404Z,2.83
2022-10-31T01:55:31.534Z,2.44
2022-10-31T02:01:00.529Z,3.15
2022-10-31T02:06:24.811Z,2.70
2022-10-31T02:11:52.259Z,3.20
2022-10-31T02:17:18.963Z,2.93
2022-10-31T02:22:42.966Z,2.89
2022-10-31T02:28:26.433Z,2.96
2022-10-31T02:33:59.162Z,2.85
2022-10-31T02:39:23.868Z,2.30
2022-10-31T02:44:47.231Z,2.59
2022-10-31T02:50:10.050Z,2.82
2022-10-31T02:55:36.731Z,2.49
2022-10-31T03:01:08.279Z,2.60
2022-10-31T03:06:38.869Z,2.74
2022-10-31T03:12:04.108Z,2.88
2022-10-31T03:17:34.187Z,2.46
2022-10-31T03:23:00.341Z,2.66
2022-10-31T03:28:23.889Z,2.64
2022-10-31T03:33:51.489Z,2.97
2022-10-31T03:39:15.623Z,2.74
2022-10-31T03:44:42.123Z,3.02
2022-10-31T03:50:08.241Z,3.04
2022-10-31T03:55:29.007Z,2.68
2022-10-31T04:00:52.125Z,3.02
2022-10-31T04:06:19.497Z,2.90
2022-10-31T04:11:46.345Z,2.99
2022-10-31T04:17:12.657Z,2.76
2022-10-31T04:22:37.701Z,2.98
2022-10-31T04:28:00.762Z,3.12
2022-10-31T04:33:27.514Z,2.97
2022-10-31T04:38:51.058Z,3.03
2022-10-31T04:44:18.196Z,3.21
2022-10-31T04:49:40.284Z,3.15
2022-10-31T04:55:01.637Z,3.55
2022-10-31T05:00:25.841Z,3.41
2022-10-31T05:05:46.943Z,2.81
2022-10-31T05:11:14.055Z,3.33
2022-10-31T05:16:39.570Z,2.97
2022-10-31T05:22:06.603Z,3.13
2022-10-31T05:27:32.812Z,3.40
2022-10-31T05:32:59.775Z,3.48
2022-10-31T05:38:23.558Z,4.07
2022-10-31T05:44:08.948Z,3.32
2022-10-31T05:49:33.388Z,3.57
2022-10-31T05:55:00.230Z,3.55
2022-10-31T06:00:27.940Z,3.46
2022-10-31T06:05:55.445Z,4.78
2022-10-31T06:11:21.638Z,4.08
2022-10-31T06:16:51.129Z,3.83
2022-10-31T06:22:17.545Z,3.67
2022-10-31T06:27:38.836Z,4.91
2022-10-31T06:33:00.280Z,4.40
2022-10-31T06:38:21.597Z,4.00
2022-10-31T06:43:47.696Z,4.23
2022-10-31T06:49:11.455Z,4.20
2022-10-31T06:54:39.188Z,3.84
2022-10-31T07:00:02.632Z,4.37
2022-10-31T07:05:28.142Z,4.56
2022-10-31T07:10:53.965Z,5.04
2022-10-31T07:16:16.199Z,5.13
2022-10-31T07:21:42.966Z,4.68
2022-10-31T07:27:08.591Z,5.13
2022-10-31T07:32:35.253Z,4.81
2022-10-31T07:38:03.872Z,4.67
2022-10-31T07:43:33.905Z,4.19
2022-10-31T07:49:01.740Z,5.55
2022-10-31T07:54:28.625Z,5.44
2022-10-31T07:59:50.150Z,4.93
2022-10-31T08:05:12.038Z,4.91
2022-10-31T08:10:33.183Z,4.69
2022-10-31T08:15:54.944Z,4.54
2022-10-31T08:21:18.816Z,4.34
2022-10-31T08:26:40.560Z,3.91
2022-10-31T08:32:02.413Z,3.86
2022-10-31T08:37:24.596Z,4.04
2022-10-31T08:42:48.243Z,4.27
2022-10-31T08:48:15.076Z,3.24
2022-10-31T08:53:37.005Z,3.50
2022-10-31T08:58:59.032Z,3.24
2022-10-31T09:04:23.898Z,3.20
2022-10-31T09:09:51.169Z,3.63
2022-10-31T09:15:18.834Z,3.36
2022-10-31T09:20:46.015Z,3.35
2022-10-31T09:26:11.954Z,3.43
2022-10-31T09:31:43.807Z,3.58
2022-10-31T09:37:04.402Z,3.81
2022-10-31T09:42:32.503Z,3.98
2022-10-31T09:48:09.325Z,3.89
2022-10-31T09:53:50.903Z,3.71
2022-10-31T09:59:17.472Z,4.00
2022-10-31T10:04:44.835Z,4.02
2022-10-31T10:10:08.343Z,4.40
2022-10-31T10:15:32.383Z,3.93
2022-10-31T10:21:03.541Z,3.41
2022-10-31T10:26:37.983Z,3.76
2022-10-31T10:32:04.407Z,3.79
2022-10-31T10:37:32.241Z,3.89
2022-10-31T10:43:00.094Z,3.49
2022-10-31T10:48:31.194Z,3.62
2022-10-31T10:54:07.987Z,3.54
2022-10-31T10:59:37.483Z,3.84
2022-10-31T11:05:01.449Z,4.28
2022-10-31T11:10:27.511Z,4.02
2022-10-31T11:15:51.480Z,4.15
2022-10-31T11:21:14.283Z,4.20
2022-10-31T11:26:44.455Z,4.30
2022-10-31T11:32:08.404Z,4.64
2022-10-31T11:37:40.262Z,5.05
2022-10-31T11:43:05.990Z,5.08
2022-10-31T11:48:37.394Z,4.92
2022-10-31T11:54:04.900Z,5.34
2022-10-31T11:59:41.898Z,5.57
2022-10-31T12:05:10.566Z,5.32
2022-10-31T12:10:34.724Z,5.22
2022-10-31T12:16:02.291Z,4.55
2022-10-31T12:21:31.317Z,4.57
2022-10-31T12:27:10.455Z,5.02
2022-10-31T12:32:40.943Z,4.12
2022-10-31T12:38:09.240Z,3.88
2022-10-31T12:43:59.310Z,4.01
2022-10-31T12:49:24.035Z,3.64
2022-10-31T12:55:04.404Z,4.00
2022-10-31T13:00:33.346Z,3.57
2022-10-31T13:06:01.114Z,4.18
2022-10-31T13:11:26.311Z,4.00
2022-10-31T13:16:48.576Z,4.46
2022-10-31T13:22:16.379Z,3.89
2022-10-31T13:27:41.327Z,3.48
2022-10-31T13:33:07.294Z,4.16
2022-10-31T13:38:35.063Z,4.33
2022-10-31T13:43:57.540Z,3.74
2022-10-31T13:49:25.213Z,3.74
2022-10-31T13:55:00.710Z,3.08
2022-10-31T14:00:23.632Z,3.28
2022-10-31T14:05:49.904Z,3.37
2022-10-31T14:11:15.739Z,3.56
2022-10-31T14:16:42.507Z,3.24
2022-10-31T14:22:10.219Z,3.13
2022-10-31T14:27:42.206Z,3.55
2022-10-31T14:33:13.338Z,3.26
2022-10-31T14:38:39.948Z,3.30
2022-10-31T14:44:05.708Z,3.68
2022-10-31T14:49:54.133Z,3.20
2022-10-31T14:55:33.040Z,3.78
2022-10-31T15:00:56.192Z,3.32
2022-10-31T15:06:17.650Z,3.05
2022-10-31T15:11:44.882Z,2.92
2022-10-31T15:17:13.177Z,3.80
2022-10-31T15:22:41.612Z,3.20
2022-10-31T15:28:09.118Z,3.49
2022-10-31T15:33:47.147Z,3.38
2022-10-31T15:39:06.774Z,3.17
2022-10-31T15:44:29.264Z,3.19
2022-10-31T15:49:54.306Z,3.45
2022-10-31T15:55:21.390Z,3.80
2022-10-31T16:00:47.869Z,3.46
2022-10-31T16:06:20.204Z,3.34
2022-10-31T16:11:44.876Z,3.89
2022-10-31T16:17:08.931Z,3.46
2022-10-31T16:22:31.402Z,4.36
2022-10-31T16:27:56.698Z,4.72
2022-10-31T16:33:19.677Z,3.96
2022-10-31T16:38:43.015Z,4.36
2022-10-31T16:44:09.401Z,3.81
2022-10-31T16:49:37.347Z,3.41
2022-10-31T16:55:02.805Z,3.92
2022-10-31T17:00:38.255Z,4.73
2022-10-31T17:06:10.251Z,4.67
2022-10-31T17:11:33.870Z,5.05
2022-10-31T17:16:57.909Z,4.58
2022-10-31T17:22:22.268Z,4.63
2022-10-31T17:27:50.127Z,4.29
2022-10-31T17:33:17.248Z,5.19
2022-10-31T17:38:42.207Z,4.68
2022-10-31T17:44:06.237Z,5.05
2022-10-31T17:49:33.284Z,5.33
2022-10-31T17:54:59.928Z,5.11
2022-10-31T18:00:27.606Z,5.69
2022-10-31T18:05:50.817Z,6.10
2022-10-31T18:11:18.791Z,5.03
2022-10-31T18:16:44.681Z,5.42
2022-10-31T18:22:12.844Z,5.05
2022-10-31T18:27:40.057Z,6.10
2022-10-31T18:33:06.852Z,5.06
2022-10-31T18:38:33.354Z,4.43
2022-10-31T18:43:58.071Z,4.49
2022-10-31T18:49:23.866Z,5.27
2022-10-31T18:54:50.149Z,5.73
2022-10-31T19:00:16.784Z,5.39
2022-10-31T19:05:40.313Z,5.56
2022-10-31T19:11:07.934Z,5.63
2022-10-31T19:16:32.315Z,5.87
2022-10-31T19:22:01.977Z,5.30
2022-10-31T19:27:27.368Z,5.62
2022-10-31T19:32:54.868Z,5.94
2022-10-31T19:38:21.937Z,6.74
2022-10-31T19:43:45.973Z,6.75
2022-10-31T19:49:11.053Z,6.89
2022-10-31T19:54:36.445Z,6.41
2022-10-31T20:00:02.125Z,5.78
2022-10-31T20:05:28.219Z,5.64
2022-10-31T20:10:55.286Z,5.57
2022-10-31T20:16:21.293Z,5.72
2022-10-31T20:21:49.482Z,6.10
2022-10-31T20:27:16.642Z,6.61
2022-10-31T20:32:38.596Z,7.05
2022-10-31T20:38:00.737Z,5.89
2022-10-31T20:43:21.842Z,6.90
2022-10-31T20:48:45.225Z,6.41
2022-10-31T20:54:12.304Z,6.34
2022-10-31T20:59:39.867Z,6.59
2022-10-31T21:05:07.900Z,6.05
2022-10-31T21:10:32.327Z,5.64
2022-10-31T21:15:56.938Z,6.33
2022-10-31T21:21:29.091Z,7.36
2022-10-31T21:26:47.274Z,7.88
2022-10-31T21:32:15.668Z,6.93
2022-10-31T21:37:43.069Z,6.99
2022-10-31T21:43:13.517Z,7.49
2022-10-31T21:48:38.660Z,6.84
2022-10-31T21:54:01.789Z,6.20
2022-10-31T21:59:26.443Z,7.17
2022-10-31T22:04:53.119Z,6.82
2022-10-31T22:10:19.646Z,8.13
2022-10-31T22:15:47.117Z,6.53
2022-10-31T22:21:12.855Z,6.50
2022-10-31T22:26:39.429Z,6.42
2022-10-31T22:32:05.142Z,7.29
2022-10-31T22:37:29.502Z,7.37
2022-10-31T22:42:55.301Z,8.16
2022-10-31T22:48:22.134Z,8.52
2022-10-31T22:53:49.300Z,9.01
2022-10-31T22:59:13.600Z,8.55
2022-10-31T23:04:37.841Z,9.12
2022-10-31T23:10:04.999Z,8.41
2022-10-31T23:15:33.111Z,8.48
2022-10-31T23:21:00.951Z,7.54
2022-10-31T23:26:23.316Z,7.45
2022-10-31T23:31:49.432Z,7.34
2022-10-31T23:37:13.588Z,7.37
2022-10-31T23:42:41.512Z,7.45
2022-10-31T23:48:07.777Z,7.79
2022-10-31T23:59:03.580Z,6.62
